sensor_id;sensor_type;location;lat;lon;timestamp;temperature;humidity
46720;DHT22;32452;51.382;-0.002;2022-08-19T00:00:47;20.40;92.00
46720;DHT22;32452;51.382;-0.002;2022-08-19T00:03:34;20.50;92.10
46720;DHT22;32452;51.382;-0.002;2022-08-19T00:06:20;20.40;92.10
46720;DHT22;32452;51.382;-0.002;2022-08-19T00:09:08;20.40;92.10
46720;DHT22;32452;51.382;-0.002;2022-08-19T00:11:54;20.50;92.10
46720;DHT22;32452;51.382;-0.002;2022-08-19T00:14:41;20.50;92.10
46720;DHT22;32452;51.382;-0.002;2022-08-19T00:17:27;20.50;92.10
46720;DHT22;32452;51.382;-0.002;2022-08-19T00:20:17;20.50;92.20
46720;DHT22;32452;51.382;-0.002;2022-08-19T00:23:02;20.50;92.20
46720;DHT22;32452;51.382;-0.002;2022-08-19T00:25:48;20.50;92.20
46720;DHT22;32452;51.382;-0.002;2022-08-19T00:28:34;20.50;92.20
46720;DHT22;32452;51.382;-0.002;2022-08-19T00:31:21;20.50;92.30
46720;DHT22;32452;51.382;-0.002;2022-08-19T00:34:07;20.50;92.40
46720;DHT22;32452;51.382;-0.002;2022-08-19T00:36:54;20.50;92.50
46720;DHT22;32452;51.382;-0.002;2022-08-19T00:39:39;20.50;92.60
46720;DHT22;32452;51.382;-0.002;2022-08-19T00:42:25;20.50;92.60
46720;DHT22;32452;51.382;-0.002;2022-08-19T00:45:22;20.50;92.80
46720;DHT22;32452;51.382;-0.002;2022-08-19T00:48:08;20.50;92.90
46720;DHT22;32452;51.382;-0.002;2022-08-19T00:50:59;20.50;93.00
46720;DHT22;32452;51.382;-0.002;2022-08-19T00:53:45;20.50;93.10
46720;DHT22;32452;51.382;-0.002;2022-08-19T00:56:31;20.50;93.20
46720;DHT22;32452;51.382;-0.002;2022-08-19T00:59:17;20.50;93.30
46720;DHT22;32452;51.382;-0.002;2022-08-19T01:02:23;20.60;93.50
46720;DHT22;32452;51.382;-0.002;2022-08-19T01:05:14;20.60;93.60
46720;DHT22;32452;51.382;-0.002;2022-08-19T01:08:02;20.50;93.70
46720;DHT22;32452;51.382;-0.002;2022-08-19T01:10:52;20.50;93.80
46720;DHT22;32452;51.382;-0.002;2022-08-19T01:13:39;20.50;93.90
46720;DHT22;32452;51.382;-0.002;2022-08-19T01:16:35;20.50;94.00
46720;DHT22;32452;51.382;-0.002;2022-08-19T01:19:54;20.50;94.10
46720;DHT22;32452;51.382;-0.002;2022-08-19T01:22:51;20.50;94.10
46720;DHT22;32452;51.382;-0.002;2022-08-19T01:25:42;20.50;94.10
46720;DHT22;32452;51.382;-0.002;2022-08-19T01:28:29;20.50;94.20
46720;DHT22;32452;51.382;-0.002;2022-08-19T01:31:26;20.40;94.20
46720;DHT22;32452;51.382;-0.002;2022-08-19T01:34:12;20.40;94.30
46720;DHT22;32452;51.382;-0.002;2022-08-19T01:36:57;20.40;94.30
46720;DHT22;32452;51.382;-0.002;2022-08-19T01:39:43;20.30;94.40
46720;DHT22;32452;51.382;-0.002;2022-08-19T01:42:28;20.40;94.50
46720;DHT22;32452;51.382;-0.002;2022-08-19T01:45:15;20.30;94.50
46720;DHT22;32452;51.382;-0.002;2022-08-19T01:48:02;20.30;94.50
46720;DHT22;32452;51.382;-0.002;2022-08-19T01:50:47;20.30;94.60
46720;DHT22;32452;51.382;-0.002;2022-08-19T01:53:33;20.30;94.60
46720;DHT22;32452;51.382;-0.002;2022-08-19T01:56:18;20.30;94.70
46720;DHT22;32452;51.382;-0.002;2022-08-19T01:59:13;20.30;94.80
46720;DHT22;32452;51.382;-0.002;2022-08-19T02:01:59;20.30;94.80
46720;DHT22;32452;51.382;-0.002;2022-08-19T02:04:45;20.30;94.90
46720;DHT22;32452;51.382;-0.002;2022-08-19T02:07:30;20.20;94.90
46720;DHT22;32452;51.382;-0.002;2022-08-19T02:10:20;20.30;95.10
46720;DHT22;32452;51.382;-0.002;2022-08-19T02:13:06;20.30;95.10
46720;DHT22;32452;51.382;-0.002;2022-08-19T02:15:52;20.30;95.10
46720;DHT22;32452;51.382;-0.002;2022-08-19T02:18:37;20.30;95.20
46720;DHT22;32452;51.382;-0.002;2022-08-19T02:21:24;20.30;95.20
46720;DHT22;32452;51.382;-0.002;2022-08-19T02:24:09;20.30;95.20
46720;DHT22;32452;51.382;-0.002;2022-08-19T02:26:55;20.30;95.30
46720;DHT22;32452;51.382;-0.002;2022-08-19T02:29:40;20.30;95.30
46720;DHT22;32452;51.382;-0.002;2022-08-19T02:32:26;20.30;95.30
46720;DHT22;32452;51.382;-0.002;2022-08-19T02:35:13;20.40;95.30
46720;DHT22;32452;51.382;-0.002;2022-08-19T02:37:59;20.30;95.30
46720;DHT22;32452;51.382;-0.002;2022-08-19T02:41:13;20.30;95.40
46720;DHT22;32452;51.382;-0.002;2022-08-19T02:44:01;20.30;95.50
46720;DHT22;32452;51.382;-0.002;2022-08-19T02:47:06;20.30;95.50
46720;DHT22;32452;51.382;-0.002;2022-08-19T02:49:52;20.30;95.50
46720;DHT22;32452;51.382;-0.002;2022-08-19T02:52:38;20.30;95.50
46720;DHT22;32452;51.382;-0.002;2022-08-19T02:55:23;20.30;95.50
46720;DHT22;32452;51.382;-0.002;2022-08-19T02:58:09;20.40;95.60
46720;DHT22;32452;51.382;-0.002;2022-08-19T03:00:56;20.30;95.70
46720;DHT22;32452;51.382;-0.002;2022-08-19T03:03:41;20.40;95.80
46720;DHT22;32452;51.382;-0.002;2022-08-19T03:06:28;20.40;95.70
46720;DHT22;32452;51.382;-0.002;2022-08-19T03:09:13;20.40;95.80
46720;DHT22;32452;51.382;-0.002;2022-08-19T03:11:59;20.40;95.90
46720;DHT22;32452;51.382;-0.002;2022-08-19T03:14:44;20.40;95.90
46720;DHT22;32452;51.382;-0.002;2022-08-19T03:17:31;20.30;95.90
46720;DHT22;32452;51.382;-0.002;2022-08-19T03:20:17;20.30;96.00
46720;DHT22;32452;51.382;-0.002;2022-08-19T03:23:03;20.40;96.00
46720;DHT22;32452;51.382;-0.002;2022-08-19T03:25:49;20.40;96.00
46720;DHT22;32452;51.382;-0.002;2022-08-19T03:28:48;20.40;96.10
46720;DHT22;32452;51.382;-0.002;2022-08-19T03:31:43;20.40;96.10
46720;DHT22;32452;51.382;-0.002;2022-08-19T03:34:38;20.40;96.10
46720;DHT22;32452;51.382;-0.002;2022-08-19T03:37:23;20.40;96.10
46720;DHT22;32452;51.382;-0.002;2022-08-19T03:40:09;20.40;96.30
46720;DHT22;32452;51.382;-0.002;2022-08-19T03:43:01;20.30;96.60
46720;DHT22;32452;51.382;-0.002;2022-08-19T03:45:47;20.30;96.90
46720;DHT22;32452;51.382;-0.002;2022-08-19T03:48:34;20.30;97.10
46720;DHT22;32452;51.382;-0.002;2022-08-19T03:51:25;20.30;97.30
46720;DHT22;32452;51.382;-0.002;2022-08-19T03:54:20;20.30;97.50
46720;DHT22;32452;51.382;-0.002;2022-08-19T03:57:05;20.30;97.70
46720;DHT22;32452;51.382;-0.002;2022-08-19T03:59:51;20.20;97.70
46720;DHT22;32452;51.382;-0.002;2022-08-19T04:02:37;20.20;97.80
46720;DHT22;32452;51.382;-0.002;2022-08-19T04:05:22;20.20;98.00
46720;DHT22;32452;51.382;-0.002;2022-08-19T04:08:14;20.10;98.10
46720;DHT22;32452;51.382;-0.002;2022-08-19T04:11:07;20.10;98.30
46720;DHT22;32452;51.382;-0.002;2022-08-19T04:13:54;20.10;98.50
46720;DHT22;32452;51.382;-0.002;2022-08-19T04:16:39;20.10;98.50
46720;DHT22;32452;51.382;-0.002;2022-08-19T04:19:26;20.10;98.60
46720;DHT22;32452;51.382;-0.002;2022-08-19T04:22:12;20.10;98.70
46720;DHT22;32452;51.382;-0.002;2022-08-19T04:24:57;20.10;98.80
46720;DHT22;32452;51.382;-0.002;2022-08-19T04:27:43;20.10;98.80
46720;DHT22;32452;51.382;-0.002;2022-08-19T04:30:40;20.10;98.90
46720;DHT22;32452;51.382;-0.002;2022-08-19T04:33:27;20.10;98.80
46720;DHT22;32452;51.382;-0.002;2022-08-19T04:36:28;20.10;98.80
46720;DHT22;32452;51.382;-0.002;2022-08-19T04:39:16;20.10;98.90
46720;DHT22;32452;51.382;-0.002;2022-08-19T04:42:02;20.10;98.90
46720;DHT22;32452;51.382;-0.002;2022-08-19T04:45:15;20.10;99.00
46720;DHT22;32452;51.382;-0.002;2022-08-19T04:48:01;20.10;99.10
46720;DHT22;32452;51.382;-0.002;2022-08-19T04:51:10;20.10;99.50
46720;DHT22;32452;51.382;-0.002;2022-08-19T04:53:58;20.10;99.20
46720;DHT22;32452;51.382;-0.002;2022-08-19T04:56:45;20.10;99.20
46720;DHT22;32452;51.382;-0.002;2022-08-19T04:59:31;20.10;99.20
46720;DHT22;32452;51.382;-0.002;2022-08-19T05:02:19;20.10;99.20
46720;DHT22;32452;51.382;-0.002;2022-08-19T05:05:04;20.10;99.20
46720;DHT22;32452;51.382;-0.002;2022-08-19T05:07:51;20.10;99.30
46720;DHT22;32452;51.382;-0.002;2022-08-19T05:10:38;20.10;99.30
46720;DHT22;32452;51.382;-0.002;2022-08-19T05:13:24;20.10;99.40
46720;DHT22;32452;51.382;-0.002;2022-08-19T05:16:11;20.10;99.40
46720;DHT22;32452;51.382;-0.002;2022-08-19T05:18:57;20.10;99.40
46720;DHT22;32452;51.382;-0.002;2022-08-19T05:22:01;20.10;99.40
46720;DHT22;32452;51.382;-0.002;2022-08-19T05:25:08;20.10;99.50
46720;DHT22;32452;51.382;-0.002;2022-08-19T05:27:57;20.10;99.60
46720;DHT22;32452;51.382;-0.002;2022-08-19T05:30:43;20.10;99.60
46720;DHT22;32452;51.382;-0.002;2022-08-19T05:33:32;20.20;99.70
46720;DHT22;32452;51.382;-0.002;2022-08-19T05:36:17;20.20;99.70
46720;DHT22;32452;51.382;-0.002;2022-08-19T05:39:07;20.20;99.80
46720;DHT22;32452;51.382;-0.002;2022-08-19T05:42:06;20.20;99.70
46720;DHT22;32452;51.382;-0.002;2022-08-19T05:44:52;20.20;99.70
46720;DHT22;32452;51.382;-0.002;2022-08-19T05:47:38;20.20;99.80
46720;DHT22;32452;51.382;-0.002;2022-08-19T05:50:26;20.20;99.70
46720;DHT22;32452;51.382;-0.002;2022-08-19T05:53:12;20.30;99.60
46720;DHT22;32452;51.382;-0.002;2022-08-19T05:56:09;20.30;99.40
46720;DHT22;32452;51.382;-0.002;2022-08-19T05:58:54;20.40;99.20
46720;DHT22;32452;51.382;-0.002;2022-08-19T06:01:42;20.40;99.00
46720;DHT22;32452;51.382;-0.002;2022-08-19T06:04:28;20.50;98.60
46720;DHT22;32452;51.382;-0.002;2022-08-19T06:07:13;20.60;98.40
46720;DHT22;32452;51.382;-0.002;2022-08-19T06:10:00;20.70;98.00
46720;DHT22;32452;51.382;-0.002;2022-08-19T06:12:45;20.80;97.50
46720;DHT22;32452;51.382;-0.002;2022-08-19T06:15:31;21.00;96.70
46720;DHT22;32452;51.382;-0.002;2022-08-19T06:18:16;21.10;96.00
46720;DHT22;32452;51.382;-0.002;2022-08-19T06:21:02;21.20;95.60
46720;DHT22;32452;51.382;-0.002;2022-08-19T06:23:49;21.30;95.20
46720;DHT22;32452;51.382;-0.002;2022-08-19T06:26:40;21.30;94.80
46720;DHT22;32452;51.382;-0.002;2022-08-19T06:29:27;21.20;94.10
46720;DHT22;32452;51.382;-0.002;2022-08-19T06:32:15;21.20;94.00
46720;DHT22;32452;51.382;-0.002;2022-08-19T06:35:01;21.10;93.90
46720;DHT22;32452;51.382;-0.002;2022-08-19T06:37:46;21.10;93.80
46720;DHT22;32452;51.382;-0.002;2022-08-19T06:40:32;21.10;93.60
46720;DHT22;32452;51.382;-0.002;2022-08-19T06:43:18;21.10;93.30
46720;DHT22;32452;51.382;-0.002;2022-08-19T06:46:03;21.10;93.00
46720;DHT22;32452;51.382;-0.002;2022-08-19T06:48:52;21.10;92.80
46720;DHT22;32452;51.382;-0.002;2022-08-19T06:51:42;21.10;92.30
46720;DHT22;32452;51.382;-0.002;2022-08-19T06:54:29;21.10;92.00
46720;DHT22;32452;51.382;-0.002;2022-08-19T06:57:25;21.10;91.70
46720;DHT22;32452;51.382;-0.002;2022-08-19T07:00:11;21.10;91.50
46720;DHT22;32452;51.382;-0.002;2022-08-19T07:02:58;21.00;91.40
46720;DHT22;32452;51.382;-0.002;2022-08-19T07:05:50;21.00;91.30
46720;DHT22;32452;51.382;-0.002;2022-08-19T07:08:37;21.00;91.30
46720;DHT22;32452;51.382;-0.002;2022-08-19T07:11:27;21.00;91.40
46720;DHT22;32452;51.382;-0.002;2022-08-19T07:14:15;21.00;91.50
46720;DHT22;32452;51.382;-0.002;2022-08-19T07:17:06;21.00;91.30
46720;DHT22;32452;51.382;-0.002;2022-08-19T07:19:52;21.00;91.20
46720;DHT22;32452;51.382;-0.002;2022-08-19T07:22:39;21.00;91.10
46720;DHT22;32452;51.382;-0.002;2022-08-19T07:25:25;21.00;91.20
46720;DHT22;32452;51.382;-0.002;2022-08-19T07:28:17;21.00;91.30
46720;DHT22;32452;51.382;-0.002;2022-08-19T07:31:14;21.00;91.40
46720;DHT22;32452;51.382;-0.002;2022-08-19T07:34:07;21.10;91.50
46720;DHT22;32452;51.382;-0.002;2022-08-19T07:36:53;21.10;91.60
46720;DHT22;32452;51.382;-0.002;2022-08-19T07:39:39;21.10;91.80
46720;DHT22;32452;51.382;-0.002;2022-08-19T07:42:26;21.20;91.80
46720;DHT22;32452;51.382;-0.002;2022-08-19T07:45:12;21.30;91.50
46720;DHT22;32452;51.382;-0.002;2022-08-19T07:47:57;21.40;91.20
46720;DHT22;32452;51.382;-0.002;2022-08-19T07:50:43;21.50;90.70
46720;DHT22;32452;51.382;-0.002;2022-08-19T07:53:30;21.50;90.60
46720;DHT22;32452;51.382;-0.002;2022-08-19T07:56:20;21.60;90.40
46720;DHT22;32452;51.382;-0.002;2022-08-19T07:59:06;21.70;90.40
46720;DHT22;32452;51.382;-0.002;2022-08-19T08:01:54;21.80;90.30
46720;DHT22;32452;51.382;-0.002;2022-08-19T08:04:40;21.90;90.00
46720;DHT22;32452;51.382;-0.002;2022-08-19T08:07:45;22.00;89.50
46720;DHT22;32452;51.382;-0.002;2022-08-19T08:10:50;22.10;88.90
46720;DHT22;32452;51.382;-0.002;2022-08-19T08:13:41;22.10;88.20
46720;DHT22;32452;51.382;-0.002;2022-08-19T08:16:27;22.10;88.20
46720;DHT22;32452;51.382;-0.002;2022-08-19T08:19:18;22.20;87.40
46720;DHT22;32452;51.382;-0.002;2022-08-19T08:22:11;22.30;86.60
46720;DHT22;32452;51.382;-0.002;2022-08-19T08:25:21;22.40;86.10
46720;DHT22;32452;51.382;-0.002;2022-08-19T08:28:07;22.50;85.50
46720;DHT22;32452;51.382;-0.002;2022-08-19T08:30:57;22.60;85.20
46720;DHT22;32452;51.382;-0.002;2022-08-19T08:33:43;22.80;83.80
46720;DHT22;32452;51.382;-0.002;2022-08-19T08:36:29;22.80;82.80
46720;DHT22;32452;51.382;-0.002;2022-08-19T08:39:20;22.90;81.90
46720;DHT22;32452;51.382;-0.002;2022-08-19T08:42:20;23.00;81.10
46720;DHT22;32452;51.382;-0.002;2022-08-19T08:45:13;23.10;80.30
46720;DHT22;32452;51.382;-0.002;2022-08-19T08:48:04;23.30;79.50
46720;DHT22;32452;51.382;-0.002;2022-08-19T08:51:11;23.40;78.60
46720;DHT22;32452;51.382;-0.002;2022-08-19T08:54:07;23.40;77.90
46720;DHT22;32452;51.382;-0.002;2022-08-19T08:56:54;23.40;77.90
46720;DHT22;32452;51.382;-0.002;2022-08-19T08:59:41;23.50;77.20
46720;DHT22;32452;51.382;-0.002;2022-08-19T09:02:28;23.70;76.10
46720;DHT22;32452;51.382;-0.002;2022-08-19T09:05:14;23.90;74.70
46720;DHT22;32452;51.382;-0.002;2022-08-19T09:08:07;23.90;73.80
46720;DHT22;32452;51.382;-0.002;2022-08-19T09:10:58;23.90;73.10
46720;DHT22;32452;51.382;-0.002;2022-08-19T09:16:33;24.40;71.40
46720;DHT22;32452;51.382;-0.002;2022-08-19T09:19:19;24.70;70.20
46720;DHT22;32452;51.382;-0.002;2022-08-19T09:22:06;24.80;68.90
46720;DHT22;32452;51.382;-0.002;2022-08-19T09:24:55;24.80;68.30
46720;DHT22;32452;51.382;-0.002;2022-08-19T09:27:42;24.70;68.20
46720;DHT22;32452;51.382;-0.002;2022-08-19T09:30:30;24.70;67.90
46720;DHT22;32452;51.382;-0.002;2022-08-19T09:33:16;24.60;67.90
46720;DHT22;32452;51.382;-0.002;2022-08-19T09:36:06;24.60;67.90
46720;DHT22;32452;51.382;-0.002;2022-08-19T09:38:53;24.70;67.30
46720;DHT22;32452;51.382;-0.002;2022-08-19T09:41:39;25.10;66.30
46720;DHT22;32452;51.382;-0.002;2022-08-19T09:44:31;25.70;64.70
46720;DHT22;32452;51.382;-0.002;2022-08-19T09:47:19;26.50;62.10
46720;DHT22;32452;51.382;-0.002;2022-08-19T09:50:09;26.80;60.10
46720;DHT22;32452;51.382;-0.002;2022-08-19T09:53:00;26.70;59.00
46720;DHT22;32452;51.382;-0.002;2022-08-19T09:55:46;26.80;59.00
46720;DHT22;32452;51.382;-0.002;2022-08-19T09:58:33;26.80;58.70
46720;DHT22;32452;51.382;-0.002;2022-08-19T10:01:25;27.10;57.90
46720;DHT22;32452;51.382;-0.002;2022-08-19T10:04:11;27.20;57.20
46720;DHT22;32452;51.382;-0.002;2022-08-19T10:07:04;27.30;57.20
46720;DHT22;32452;51.382;-0.002;2022-08-19T10:09:50;27.30;56.50
46720;DHT22;32452;51.382;-0.002;2022-08-19T10:12:36;27.10;56.40
46720;DHT22;32452;51.382;-0.002;2022-08-19T10:15:22;27.00;56.20
46720;DHT22;32452;51.382;-0.002;2022-08-19T10:18:14;26.60;56.30
46720;DHT22;32452;51.382;-0.002;2022-08-19T10:21:09;26.50;56.80
46720;DHT22;32452;51.382;-0.002;2022-08-19T10:23:59;26.30;56.90
46720;DHT22;32452;51.382;-0.002;2022-08-19T10:26:45;26.00;57.10
46720;DHT22;32452;51.382;-0.002;2022-08-19T10:29:41;25.80;57.30
46720;DHT22;32452;51.382;-0.002;2022-08-19T10:32:31;25.40;58.00
46720;DHT22;32452;51.382;-0.002;2022-08-19T10:35:19;25.10;59.00
46720;DHT22;32452;51.382;-0.002;2022-08-19T10:38:06;24.80;59.40
46720;DHT22;32452;51.382;-0.002;2022-08-19T10:40:54;24.70;60.00
46720;DHT22;32452;51.382;-0.002;2022-08-19T10:43:41;24.50;60.50
46720;DHT22;32452;51.382;-0.002;2022-08-19T10:46:28;24.40;61.10
46720;DHT22;32452;51.382;-0.002;2022-08-19T10:49:16;24.20;61.60
46720;DHT22;32452;51.382;-0.002;2022-08-19T10:52:03;24.10;62.20
46720;DHT22;32452;51.382;-0.002;2022-08-19T10:55:20;24.00;62.70
46720;DHT22;32452;51.382;-0.002;2022-08-19T10:58:24;24.00;63.00
46720;DHT22;32452;51.382;-0.002;2022-08-19T11:01:11;23.90;63.20
46720;DHT22;32452;51.382;-0.002;2022-08-19T11:03:57;23.80;63.30
46720;DHT22;32452;51.382;-0.002;2022-08-19T11:06:43;23.70;63.60
46720;DHT22;32452;51.382;-0.002;2022-08-19T11:09:30;23.60;63.90
46720;DHT22;32452;51.382;-0.002;2022-08-19T11:12:18;23.50;64.20
46720;DHT22;32452;51.382;-0.002;2022-08-19T11:15:08;23.50;64.40
46720;DHT22;32452;51.382;-0.002;2022-08-19T11:17:55;23.60;64.70
46720;DHT22;32452;51.382;-0.002;2022-08-19T11:20:41;23.80;64.70
46720;DHT22;32452;51.382;-0.002;2022-08-19T11:23:26;23.90;64.20
46720;DHT22;32452;51.382;-0.002;2022-08-19T11:26:13;24.10;64.10
46720;DHT22;32452;51.382;-0.002;2022-08-19T11:29:00;24.20;63.50
46720;DHT22;32452;51.382;-0.002;2022-08-19T11:31:49;24.30;63.00
46720;DHT22;32452;51.382;-0.002;2022-08-19T11:34:35;24.50;62.70
46720;DHT22;32452;51.382;-0.002;2022-08-19T11:37:21;24.50;62.30
46720;DHT22;32452;51.382;-0.002;2022-08-19T11:40:07;24.50;61.80
46720;DHT22;32452;51.382;-0.002;2022-08-19T11:42:53;24.40;61.90
46720;DHT22;32452;51.382;-0.002;2022-08-19T11:45:42;24.30;61.90
46720;DHT22;32452;51.382;-0.002;2022-08-19T11:48:27;24.30;62.60
46720;DHT22;32452;51.382;-0.002;2022-08-19T11:51:15;24.30;61.80
46720;DHT22;32452;51.382;-0.002;2022-08-19T11:54:02;24.30;61.40
46720;DHT22;32452;51.382;-0.002;2022-08-19T11:56:49;24.20;60.70
46720;DHT22;32452;51.382;-0.002;2022-08-19T11:59:35;24.10;60.30
46720;DHT22;32452;51.382;-0.002;2022-08-19T12:02:21;24.00;60.10
46720;DHT22;32452;51.382;-0.002;2022-08-19T12:05:07;24.00;59.70
46720;DHT22;32452;51.382;-0.002;2022-08-19T12:07:57;23.90;59.20
46720;DHT22;32452;51.382;-0.002;2022-08-19T12:10:43;23.90;59.00
46720;DHT22;32452;51.382;-0.002;2022-08-19T12:13:30;23.80;58.60
46720;DHT22;32452;51.382;-0.002;2022-08-19T12:16:19;23.80;58.00
46720;DHT22;32452;51.382;-0.002;2022-08-19T12:19:05;23.70;57.80
46720;DHT22;32452;51.382;-0.002;2022-08-19T12:21:51;23.70;57.90
46720;DHT22;32452;51.382;-0.002;2022-08-19T12:24:40;23.70;57.70
46720;DHT22;32452;51.382;-0.002;2022-08-19T12:27:26;23.80;57.50
46720;DHT22;32452;51.382;-0.002;2022-08-19T12:30:25;23.90;57.10
46720;DHT22;32452;51.382;-0.002;2022-08-19T12:33:10;24.00;57.10
46720;DHT22;32452;51.382;-0.002;2022-08-19T12:36:02;24.20;56.70
46720;DHT22;32452;51.382;-0.002;2022-08-19T12:38:54;24.20;56.20
46720;DHT22;32452;51.382;-0.002;2022-08-19T12:41:39;24.30;55.70
46720;DHT22;32452;51.382;-0.002;2022-08-19T12:44:40;24.40;54.90
46720;DHT22;32452;51.382;-0.002;2022-08-19T12:47:27;24.50;54.10
46720;DHT22;32452;51.382;-0.002;2022-08-19T12:50:12;24.40;53.70
46720;DHT22;32452;51.382;-0.002;2022-08-19T12:52:58;24.20;53.30
46720;DHT22;32452;51.382;-0.002;2022-08-19T12:55:43;24.20;53.20
46720;DHT22;32452;51.382;-0.002;2022-08-19T12:58:29;24.30;52.70
46720;DHT22;32452;51.382;-0.002;2022-08-19T13:01:16;24.70;52.00
46720;DHT22;32452;51.382;-0.002;2022-08-19T13:04:06;25.10;51.20
46720;DHT22;32452;51.382;-0.002;2022-08-19T13:06:51;25.60;51.20
46720;DHT22;32452;51.382;-0.002;2022-08-19T13:09:37;26.00;49.40
46720;DHT22;32452;51.382;-0.002;2022-08-19T13:12:23;26.20;48.00
46720;DHT22;32452;51.382;-0.002;2022-08-19T13:15:12;26.30;47.40
46720;DHT22;32452;51.382;-0.002;2022-08-19T13:17:59;26.30;46.70
46720;DHT22;32452;51.382;-0.002;2022-08-19T13:20:45;26.50;46.70
46720;DHT22;32452;51.382;-0.002;2022-08-19T13:23:37;26.50;46.00
46720;DHT22;32452;51.382;-0.002;2022-08-19T13:26:23;26.50;45.50
46720;DHT22;32452;51.382;-0.002;2022-08-19T13:29:09;26.40;45.00
46720;DHT22;32452;51.382;-0.002;2022-08-19T13:32:13;26.40;44.90
46720;DHT22;32452;51.382;-0.002;2022-08-19T13:35:17;26.30;45.00
46720;DHT22;32452;51.382;-0.002;2022-08-19T13:38:04;26.30;44.60
46720;DHT22;32452;51.382;-0.002;2022-08-19T13:40:56;26.30;44.70
46720;DHT22;32452;51.382;-0.002;2022-08-19T13:43:57;26.40;44.90
46720;DHT22;32452;51.382;-0.002;2022-08-19T13:46:42;26.60;44.70
46720;DHT22;32452;51.382;-0.002;2022-08-19T13:49:29;26.80;43.90
46720;DHT22;32452;51.382;-0.002;2022-08-19T13:52:16;26.90;43.90
46720;DHT22;32452;51.382;-0.002;2022-08-19T13:55:01;26.90;43.30
46720;DHT22;32452;51.382;-0.002;2022-08-19T13:57:55;26.70;43.10
46720;DHT22;32452;51.382;-0.002;2022-08-19T14:00:44;26.40;43.40
46720;DHT22;32452;51.382;-0.002;2022-08-19T14:03:30;26.20;43.80
46720;DHT22;32452;51.382;-0.002;2022-08-19T14:06:16;26.10;44.00
46720;DHT22;32452;51.382;-0.002;2022-08-19T14:09:02;26.20;43.80
46720;DHT22;32452;51.382;-0.002;2022-08-19T14:11:47;26.40;43.20
46720;DHT22;32452;51.382;-0.002;2022-08-19T14:14:39;26.40;42.80
46720;DHT22;32452;51.382;-0.002;2022-08-19T14:17:24;26.50;42.60
46720;DHT22;32452;51.382;-0.002;2022-08-19T14:20:11;26.60;42.60
46720;DHT22;32452;51.382;-0.002;2022-08-19T14:23:03;26.70;42.30
46720;DHT22;32452;51.382;-0.002;2022-08-19T14:25:50;26.80;42.00
46720;DHT22;32452;51.382;-0.002;2022-08-19T14:28:36;26.80;41.30
46720;DHT22;32452;51.382;-0.002;2022-08-19T14:31:22;26.80;41.00
46720;DHT22;32452;51.382;-0.002;2022-08-19T14:34:14;26.80;40.30
46720;DHT22;32452;51.382;-0.002;2022-08-19T14:37:00;26.70;40.00
46720;DHT22;32452;51.382;-0.002;2022-08-19T14:39:46;26.70;39.60
46720;DHT22;32452;51.382;-0.002;2022-08-19T14:42:31;26.70;39.40
46720;DHT22;32452;51.382;-0.002;2022-08-19T14:45:18;26.70;38.80
46720;DHT22;32452;51.382;-0.002;2022-08-19T14:48:08;26.70;38.60
46720;DHT22;32452;51.382;-0.002;2022-08-19T14:51:05;26.70;38.40
46720;DHT22;32452;51.382;-0.002;2022-08-19T14:53:51;26.60;38.20
46720;DHT22;32452;51.382;-0.002;2022-08-19T14:56:40;26.60;37.90
46720;DHT22;32452;51.382;-0.002;2022-08-19T14:59:25;26.50;37.60
46720;DHT22;32452;51.382;-0.002;2022-08-19T15:02:11;26.50;38.00
46720;DHT22;32452;51.382;-0.002;2022-08-19T15:05:17;26.50;37.80
46720;DHT22;32452;51.382;-0.002;2022-08-19T15:08:03;26.40;37.10
46720;DHT22;32452;51.382;-0.002;2022-08-19T15:10:49;26.40;36.60
46720;DHT22;32452;51.382;-0.002;2022-08-19T15:13:35;26.30;36.50
46720;DHT22;32452;51.382;-0.002;2022-08-19T15:16:22;26.30;36.10
46720;DHT22;32452;51.382;-0.002;2022-08-19T15:19:08;26.20;35.60
46720;DHT22;32452;51.382;-0.002;2022-08-19T15:21:54;26.10;35.70
46720;DHT22;32452;51.382;-0.002;2022-08-19T15:24:40;26.00;35.80
46720;DHT22;32452;51.382;-0.002;2022-08-19T15:27:32;25.90;36.10
46720;DHT22;32452;51.382;-0.002;2022-08-19T15:30:23;25.90;36.30
46720;DHT22;32452;51.382;-0.002;2022-08-19T15:33:10;25.80;36.50
46720;DHT22;32452;51.382;-0.002;2022-08-19T15:35:59;25.80;36.60
46720;DHT22;32452;51.382;-0.002;2022-08-19T15:38:44;25.70;36.70
46720;DHT22;32452;51.382;-0.002;2022-08-19T15:41:32;25.70;37.00
46720;DHT22;32452;51.382;-0.002;2022-08-19T15:44:21;25.60;37.40
46720;DHT22;32452;51.382;-0.002;2022-08-19T15:47:06;25.60;37.70
46720;DHT22;32452;51.382;-0.002;2022-08-19T15:49:52;25.50;38.00
46720;DHT22;32452;51.382;-0.002;2022-08-19T15:52:48;25.50;38.10
46720;DHT22;32452;51.382;-0.002;2022-08-19T15:55:41;25.40;38.00
46720;DHT22;32452;51.382;-0.002;2022-08-19T15:58:26;25.30;38.20
46720;DHT22;32452;51.382;-0.002;2022-08-19T16:01:30;25.20;38.40
46720;DHT22;32452;51.382;-0.002;2022-08-19T16:04:25;25.20;38.40
46720;DHT22;32452;51.382;-0.002;2022-08-19T16:07:29;25.20;38.60
46720;DHT22;32452;51.382;-0.002;2022-08-19T16:10:14;25.10;38.60
46720;DHT22;32452;51.382;-0.002;2022-08-19T16:13:11;25.10;38.50
46720;DHT22;32452;51.382;-0.002;2022-08-19T16:15:56;25.00;38.50
46720;DHT22;32452;51.382;-0.002;2022-08-19T16:18:42;25.00;38.70
46720;DHT22;32452;51.382;-0.002;2022-08-19T16:21:29;25.00;38.80
46720;DHT22;32452;51.382;-0.002;2022-08-19T16:24:21;24.90;38.80
46720;DHT22;32452;51.382;-0.002;2022-08-19T16:27:06;24.80;38.80
46720;DHT22;32452;51.382;-0.002;2022-08-19T16:29:52;24.80;39.00
46720;DHT22;32452;51.382;-0.002;2022-08-19T16:32:42;24.70;39.00
46720;DHT22;32452;51.382;-0.002;2022-08-19T16:35:28;24.70;39.20
46720;DHT22;32452;51.382;-0.002;2022-08-19T16:38:13;24.60;39.30
46720;DHT22;32452;51.382;-0.002;2022-08-19T16:40:59;24.50;39.40
46720;DHT22;32452;51.382;-0.002;2022-08-19T16:43:46;24.50;39.50
46720;DHT22;32452;51.382;-0.002;2022-08-19T16:46:33;24.40;39.60
46720;DHT22;32452;51.382;-0.002;2022-08-19T16:49:19;24.40;39.80
46720;DHT22;32452;51.382;-0.002;2022-08-19T16:52:25;24.40;39.90
46720;DHT22;32452;51.382;-0.002;2022-08-19T16:55:12;24.30;39.90
46720;DHT22;32452;51.382;-0.002;2022-08-19T16:57:57;24.20;40.10
46720;DHT22;32452;51.382;-0.002;2022-08-19T17:00:45;24.20;40.30
46720;DHT22;32452;51.382;-0.002;2022-08-19T17:03:32;24.20;40.20
46720;DHT22;32452;51.382;-0.002;2022-08-19T17:06:24;24.10;40.40
46720;DHT22;32452;51.382;-0.002;2022-08-19T17:09:10;24.10;40.60
46720;DHT22;32452;51.382;-0.002;2022-08-19T17:11:56;24.00;40.70
46720;DHT22;32452;51.382;-0.002;2022-08-19T17:14:41;24.00;40.90
46720;DHT22;32452;51.382;-0.002;2022-08-19T17:17:30;24.00;40.90
46720;DHT22;32452;51.382;-0.002;2022-08-19T17:20:16;23.90;40.90
46720;DHT22;32452;51.382;-0.002;2022-08-19T17:23:02;23.80;41.00
46720;DHT22;32452;51.382;-0.002;2022-08-19T17:25:48;23.80;41.30
46720;DHT22;32452;51.382;-0.002;2022-08-19T17:28:35;23.70;41.50
46720;DHT22;32452;51.382;-0.002;2022-08-19T17:31:22;23.60;41.50